Time;durP1;ratioP1;P1;durP2;ratioP2;P2;SDS_P1;SDS_P2;PMS_P1;PMS_P2;Temp;Humidity;BMP_temperature;BMP_pressure;BME280_temperature;BME280_humidity;BME280_pressure;Samples;Min_cycle;Max_cycle;Signal;HPM_P1;HPM_P2
2022/04/03 00:00:16;;;;;;;15.75;14.07;;;1.00;99.90;;;;;;5038089;28;20554;-81
2022/04/03 00:02:42;;;;;;;15.60;12.93;;;1.00;99.90;;;;;;5035774;28;20060;-81
2022/04/03 00:05:08;;;;;;;16.08;12.45;;;1.00;99.90;;;;;;5033513;28;20075;-80
2022/04/03 00:07:34;;;;;;;15.38;12.68;;;1.00;99.90;;;;;;5026243;28;20024;-79
2022/04/03 00:10:00;;;;;;;14.05;12.65;;;1.00;99.90;;;;;;5053270;28;20033;-80
2022/04/03 00:12:25;;;;;;;16.25;13.80;;;1.10;99.90;;;;;;5036808;28;20025;-81
2022/04/03 00:14:51;;;;;;;13.98;12.48;;;1.00;99.90;;;;;;5029696;28;20090;-79
2022/04/03 00:17:16;;;;;;;15.65;13.40;;;1.00;99.90;;;;;;5048804;28;20025;-81
2022/04/03 00:19:42;;;;;;;15.15;13.43;;;1.00;99.90;;;;;;5033427;28;20398;-80
2022/04/03 00:22:10;;;;;;;21.33;14.93;;;1.00;99.90;;;;;;5030361;28;20021;-81
2022/04/03 00:24:35;;;;;;;15.55;13.52;;;0.90;99.90;;;;;;5036671;28;20121;-81
2022/04/03 00:27:01;;;;;;;16.27;14.32;;;0.90;99.90;;;;;;5031854;28;20116;-81
2022/04/03 00:29:27;;;;;;;22.40;15.55;;;0.90;99.90;;;;;;5028033;28;20040;-80
2022/04/03 00:31:52;;;;;;;19.90;15.82;;;0.90;99.90;;;;;;5044846;28;20043;-81
2022/04/03 00:34:18;;;;;;;15.55;13.88;;;0.90;99.90;;;;;;5035050;28;20387;-80
2022/04/03 00:36:43;;;;;;;16.85;14.32;;;0.90;99.90;;;;;;5047800;28;20152;-80
2022/04/03 00:39:09;;;;;;;17.05;12.98;;;0.90;99.90;;;;;;5029584;28;20079;-82
2022/04/03 00:41:36;;;;;;;16.30;13.48;;;0.90;99.90;;;;;;5044229;28;20072;-81
2022/04/03 00:44:02;;;;;;;17.00;15.15;;;0.90;99.90;;;;;;5041196;28;20033;-81
2022/04/03 00:46:29;;;;;;;19.38;15.07;;;0.90;99.90;;;;;;5028573;28;20070;-81
2022/04/03 00:48:57;;;;;;;15.88;13.80;;;1.00;99.90;;;;;;5020973;28;20033;-81
2022/04/03 00:51:23;;;;;;;18.00;15.20;;;0.90;99.90;;;;;;5067110;28;20043;-81
2022/04/03 00:53:49;;;;;;;17.35;14.63;;;0.90;99.90;;;;;;5065263;28;20053;-81
2022/04/03 00:56:14;;;;;;;15.38;13.57;;;1.20;99.90;;;;;;5053734;28;20029;-80
2022/04/03 00:58:41;;;;;;;16.75;14.15;;;1.10;99.90;;;;;;5061070;28;20013;-80
2022/04/03 01:01:06;;;;;;;14.93;12.82;;;1.00;99.90;;;;;;5069861;28;20099;-80
2022/04/03 01:03:32;;;;;;;18.25;13.82;;;1.00;99.90;;;;;;5061661;28;20032;-82
2022/04/03 01:05:58;;;;;;;16.25;14.60;;;0.90;99.90;;;;;;5035856;28;20029;-82
2022/04/03 01:08:24;;;;;;;15.70;13.88;;;1.00;99.90;;;;;;5037491;28;20048;-81
2022/04/03 01:10:50;;;;;;;16.90;14.52;;;1.00;99.90;;;;;;5031589;28;20556;-80
2022/04/03 01:13:16;;;;;;;20.45;15.35;;;1.10;99.90;;;;;;5051580;28;20056;-81
2022/04/03 01:15:42;;;;;;;16.45;14.43;;;1.00;99.90;;;;;;5032849;28;20472;-81
2022/04/03 01:18:08;;;;;;;18.33;15.73;;;0.90;99.90;;;;;;5050432;28;20037;-79
2022/04/03 01:20:35;;;;;;;20.77;15.55;;;1.00;99.90;;;;;;5052573;28;20029;-79
2022/04/03 01:23:00;;;;;;;24.83;17.05;;;0.90;99.90;;;;;;5032726;28;20037;-81
2022/04/03 01:25:26;;;;;;;21.63;16.48;;;0.90;99.90;;;;;;5037395;28;20024;-81
2022/04/03 01:27:52;;;;;;;18.35;15.65;;;0.90;99.90;;;;;;5032960;28;20033;-82
2022/04/03 01:30:17;;;;;;;21.95;16.52;;;0.90;99.90;;;;;;5037160;28;20040;-81
2022/04/03 01:32:43;;;;;;;15.82;14.13;;;0.90;99.90;;;;;;5053971;28;20548;-80
2022/04/03 01:35:09;;;;;;;16.35;14.57;;;1.00;99.90;;;;;;5034433;28;20025;-79
2022/04/03 01:37:35;;;;;;;19.42;15.15;;;1.00;99.90;;;;;;5031031;28;20032;-79
2022/04/03 01:40:02;;;;;;;20.45;14.57;;;0.90;99.90;;;;;;5029634;28;20021;-81
2022/04/03 01:42:28;;;;;;;17.58;14.43;;;0.90;99.90;;;;;;5053574;28;20065;-80
2022/04/03 01:44:54;;;;;;;15.70;13.75;;;0.90;99.90;;;;;;5024421;28;20021;-80
2022/04/03 01:47:20;;;;;;;18.02;13.80;;;0.90;99.90;;;;;;5033269;28;20123;-80
2022/04/03 01:49:45;;;;;;;16.30;14.52;;;0.90;99.90;;;;;;5053204;28;20356;-80
2022/04/03 01:52:11;;;;;;;16.67;13.57;;;1.00;99.90;;;;;;5031203;28;20120;-80
2022/04/03 01:54:37;;;;;;;16.90;14.25;;;0.90;99.90;;;;;;5033270;28;20053;-80
2022/04/03 01:57:02;;;;;;;16.23;13.45;;;1.00;99.90;;;;;;5034455;28;20032;-79
2022/04/03 01:59:28;;;;;;;16.48;14.05;;;1.00;99.90;;;;;;5024861;28;20025;-80
2022/04/03 02:01:53;;;;;;;15.82;13.10;;;1.00;99.90;;;;;;5047851;28;20094;-80
2022/04/03 02:04:19;;;;;;;14.90;13.13;;;1.00;99.90;;;;;;5034026;28;20071;-80
2022/04/03 02:06:45;;;;;;;16.67;14.65;;;1.00;99.90;;;;;;5033339;28;20031;-81
2022/04/03 02:09:10;;;;;;;18.88;14.10;;;1.00;99.90;;;;;;5046599;28;20031;-79
2022/04/03 02:11:36;;;;;;;16.52;14.15;;;1.00;99.90;;;;;;5052964;28;20047;-80
2022/04/03 02:14:02;;;;;;;16.52;13.98;;;1.00;99.90;;;;;;5046958;28;20033;-80
2022/04/03 02:16:28;;;;;;;19.02;13.95;;;1.00;99.90;;;;;;5051281;28;20037;-81
2022/04/03 02:18:53;;;;;;;16.23;12.77;;;1.00;99.90;;;;;;5035977;28;20406;-80
2022/04/03 02:21:19;;;;;;;15.23;13.55;;;1.00;99.90;;;;;;5025788;28;20021;-80
2022/04/03 02:23:44;;;;;;;15.68;13.65;;;1.10;99.90;;;;;;5031826;28;20109;-80
2022/04/03 02:26:10;;;;;;;14.63;12.95;;;1.10;99.90;;;;;;5033022;28;20025;-81
2022/04/03 02:28:36;;;;;;;13.95;12.65;;;1.10;99.90;;;;;;5042877;28;20030;-81
2022/04/03 02:31:02;;;;;;;17.88;13.55;;;1.10;99.90;;;;;;5041721;28;20033;-80
2022/04/03 02:33:27;;;;;;;15.25;13.23;;;1.10;99.90;;;;;;5049229;28;20040;-79
2022/04/03 02:35:54;;;;;;;17.90;13.82;;;1.10;99.90;;;;;;5033416;28;20039;-81
2022/04/03 02:38:19;;;;;;;18.48;14.38;;;1.10;99.90;;;;;;5027373;28;20124;-79
2022/04/03 02:40:45;;;;;;;19.73;14.57;;;1.10;99.90;;;;;;5048664;28;20052;-80
2022/04/03 02:43:11;;;;;;;16.58;14.15;;;1.10;99.90;;;;;;5034863;28;20025;-81
2022/04/03 02:45:38;;;;;;;15.60;13.95;;;1.10;99.90;;;;;;5029728;28;20071;-82
2022/04/03 02:48:04;;;;;;;19.05;14.60;;;1.10;99.90;;;;;;5051871;28;20094;-81
2022/04/03 02:50:30;;;;;;;16.05;13.40;;;1.00;99.90;;;;;;5045029;28;20036;-82
2022/04/03 02:52:56;;;;;;;16.85;13.70;;;1.00;99.90;;;;;;5046442;28;20430;-81
2022/04/03 02:55:23;;;;;;;14.02;12.55;;;1.00;99.90;;;;;;5053947;28;20025;-81
2022/04/03 02:57:49;;;;;;;15.68;12.70;;;1.10;99.90;;;;;;5049692;28;20036;-82
2022/04/03 03:00:17;;;;;;;18.85;14.15;;;1.10;99.90;;;;;;5053291;28;20368;-80
2022/04/03 03:02:47;;;;;;;14.63;13.02;;;1.10;99.90;;;;;;5050009;28;20035;-81
2022/04/03 03:05:14;;;;;;;16.48;12.73;;;1.00;99.90;;;;;;5020365;28;20369;-81
2022/04/03 03:07:41;;;;;;;18.08;13.77;;;1.00;99.90;;;;;;5045831;28;20074;-81
2022/04/03 03:10:09;;;;;;;16.92;14.38;;;1.00;99.90;;;;;;5049486;28;20519;-81
2022/04/03 03:12:35;;;;;;;15.02;13.43;;;1.00;99.90;;;;;;5052733;28;20513;-81
2022/04/03 03:15:01;;;;;;;17.52;13.32;;;1.00;99.90;;;;;;5031318;28;20105;-80
2022/04/03 03:17:27;;;;;;;16.33;12.75;;;1.00;99.90;;;;;;5032216;28;20371;-80
2022/04/03 03:19:52;;;;;;;17.27;13.27;;;1.00;99.90;;;;;;5034726;28;20084;-80
2022/04/03 03:22:19;;;;;;;14.93;12.30;;;1.00;99.90;;;;;;5048688;28;20399;-81
2022/04/03 03:24:45;;;;;;;15.50;12.57;;;1.00;99.90;;;;;;5049213;28;20017;-81
2022/04/03 03:27:11;;;;;;;18.33;12.63;;;1.00;99.90;;;;;;5028272;28;20590;-81
2022/04/03 03:29:38;;;;;;;16.17;13.57;;;1.00;99.90;;;;;;5028820;28;20060;-79
2022/04/03 03:32:04;;;;;;;13.85;11.82;;;1.00;99.90;;;;;;5029383;28;20032;-80
2022/04/03 03:34:30;;;;;;;15.35;13.40;;;1.00;99.90;;;;;;5031973;28;20021;-80
2022/04/03 03:36:55;;;;;;;16.40;13.10;;;1.00;99.90;;;;;;5047703;28;20040;-81
2022/04/03 03:39:21;;;;;;;17.45;12.75;;;1.00;99.90;;;;;;5030055;28;20032;-80
2022/04/03 03:41:46;;;;;;;13.57;12.15;;;1.00;99.90;;;;;;5024188;28;20048;-79
2022/04/03 03:44:12;;;;;;;16.52;13.77;;;1.00;99.90;;;;;;5026819;28;20032;-80
2022/04/03 03:46:39;;;;;;;15.88;13.25;;;1.00;99.90;;;;;;5052917;28;20491;-81
2022/04/03 03:49:06;;;;;;;15.40;12.25;;;1.00;99.90;;;;;;5026138;28;20057;-81
2022/04/03 03:51:32;;;;;;;13.60;12.20;;;1.00;99.90;;;;;;5031973;28;20068;-79
2022/04/03 03:53:58;;;;;;;13.80;11.70;;;1.00;99.90;;;;;;5033765;28;20033;-81
2022/04/03 03:56:24;;;;;;;17.80;13.38;;;1.00;99.90;;;;;;5030233;28;20051;-81
2022/04/03 03:58:49;;;;;;;15.38;13.02;;;1.00;99.90;;;;;;5029247;28;20021;-80
2022/04/03 04:01:15;;;;;;;15.93;13.57;;;1.00;99.90;;;;;;5044745;28;20113;-79
2022/04/03 04:03:41;;;;;;;17.25;12.57;;;1.00;99.90;;;;;;5047016;28;20028;-80
2022/04/03 04:06:06;;;;;;;16.38;12.25;;;1.00;99.90;;;;;;5047934;28;20025;-80
2022/04/03 04:08:32;;;;;;;14.93;12.13;;;1.00;99.90;;;;;;5030121;28;20033;-79
2022/04/03 04:10:58;;;;;;;15.27;12.38;;;0.90;99.90;;;;;;5029936;28;20022;-81
2022/04/03 04:13:24;;;;;;;14.80;11.98;;;0.90;99.90;;;;;;5027244;28;20025;-80
2022/04/03 04:15:50;;;;;;;13.40;11.32;;;0.90;99.90;;;;;;5046141;28;20683;-81
2022/04/03 04:18:16;;;;;;;15.75;12.45;;;1.00;99.90;;;;;;5043288;28;20091;-80
2022/04/03 04:20:42;;;;;;;15.35;11.93;;;1.00;99.90;;;;;;5049300;28;20096;-80
2022/04/03 04:23:09;;;;;;;14.38;12.63;;;0.90;99.90;;;;;;5029564;28;20439;-80
2022/04/03 04:25:34;;;;;;;14.52;12.20;;;0.90;99.90;;;;;;5032983;28;20441;-80
2022/04/03 04:28:00;;;;;;;12.93;11.57;;;0.90;99.90;;;;;;5030600;28;20082;-79
2022/04/03 04:30:25;;;;;;;15.38;12.18;;;0.90;99.90;;;;;;5049733;28;20036;-81
2022/04/03 04:32:51;;;;;;;14.18;12.65;;;0.90;99.90;;;;;;5051774;28;20033;-81
2022/04/03 04:35:17;;;;;;;13.82;12.40;;;1.00;99.90;;;;;;5031045;28;20048;-80
2022/04/03 04:37:42;;;;;;;14.38;12.02;;;1.00;99.90;;;;;;5028253;28;20029;-81
2022/04/03 04:40:12;;;;;;;12.90;11.05;;;0.90;99.90;;;;;;5045726;28;20111;-81
2022/04/03 04:42:38;;;;;;;15.57;11.90;;;1.00;99.90;;;;;;5030539;28;20043;-79
2022/04/03 04:45:07;;;;;;;12.88;11.13;;;0.90;99.90;;;;;;5030122;28;20276;-80
2022/04/03 04:47:39;;;;;;;16.20;12.57;;;0.90;99.90;;;;;;5053523;28;20557;-81
2022/04/03 04:50:09;;;;;;;13.25;10.98;;;0.90;99.90;;;;;;5031437;28;20047;-81
2022/04/03 04:52:35;;;;;;;16.38;12.43;;;0.90;99.90;;;;;;5030111;28;20090;-79
2022/04/03 04:55:05;;;;;;;14.90;12.52;;;1.00;99.90;;;;;;5028929;28;20037;-80
2022/04/03 04:57:31;;;;;;;13.88;11.13;;;0.90;99.90;;;;;;5032356;28;20052;-80
2022/04/03 04:59:57;;;;;;;15.10;11.63;;;1.00;99.90;;;;;;5056934;28;20510;-80
2022/04/03 05:02:23;;;;;;;13.75;11.07;;;1.00;99.90;;;;;;5030430;28;20483;-81
2022/04/03 05:04:48;;;;;;;14.73;11.20;;;1.00;99.90;;;;;;5035218;28;20047;-79
2022/04/03 05:07:14;;;;;;;14.98;11.82;;;1.00;99.90;;;;;;5052348;28;20029;-79
2022/04/03 05:09:40;;;;;;;13.05;11.73;;;1.00;99.90;;;;;;5045531;28;20441;-80
2022/04/03 05:12:07;;;;;;;12.60;11.32;;;1.00;99.90;;;;;;5038500;28;20031;-81
2022/04/03 05:14:32;;;;;;;14.70;12.02;;;1.00;99.90;;;;;;5029690;28;20036;-81
2022/04/03 05:16:58;;;;;;;12.18;10.73;;;1.00;99.90;;;;;;5032579;28;20033;-80
2022/04/03 05:19:24;;;;;;;13.70;11.40;;;1.00;99.90;;;;;;5052196;28;20116;-80
2022/04/03 05:21:50;;;;;;;14.98;10.95;;;1.00;99.90;;;;;;5032206;28;20044;-81
2022/04/03 05:24:16;;;;;;;12.30;10.52;;;1.00;99.90;;;;;;5052114;28;20018;-81
2022/04/03 05:26:42;;;;;;;14.25;11.32;;;1.00;99.90;;;;;;5049985;28;20028;-79
2022/04/03 05:29:07;;;;;;;14.32;10.27;;;1.00;99.90;;;;;;5052685;28;20021;-81
2022/04/03 05:31:33;;;;;;;12.98;10.90;;;1.00;99.90;;;;;;5030646;28;20029;-80
2022/04/03 05:33:58;;;;;;;16.77;11.52;;;1.00;99.90;;;;;;5051695;28;20474;-82
2022/04/03 05:36:24;;;;;;;11.93;10.63;;;1.00;99.90;;;;;;5031982;28;20029;-81
2022/04/03 05:38:50;;;;;;;12.65;11.00;;;1.00;99.90;;;;;;5051756;28;20483;-79
2022/04/03 05:41:15;;;;;;;13.55;10.68;;;1.00;99.90;;;;;;5041800;28;20092;-80
2022/04/03 05:43:42;;;;;;;11.98;8.93;;;1.10;99.90;;;;;;5035659;28;20036;-81
2022/04/03 05:46:07;;;;;;;13.02;9.88;;;1.20;99.90;;;;;;5052712;28;20036;-80
2022/04/03 05:48:33;;;;;;;11.73;8.85;;;1.20;99.90;;;;;;5028819;28;20017;-81
2022/04/03 05:50:58;;;;;;;12.52;10.00;;;1.10;99.90;;;;;;5049716;28;20030;-80
2022/04/03 05:53:24;;;;;;;11.48;10.35;;;1.10;99.90;;;;;;5035540;28;20032;-82
2022/04/03 05:55:49;;;;;;;11.80;9.30;;;1.20;99.90;;;;;;5042879;28;20100;-81
2022/04/03 05:58:15;;;;;;;11.10;9.88;;;1.30;99.90;;;;;;5051149;28;20033;-80
2022/04/03 06:00:40;;;;;;;10.07;7.80;;;1.60;99.90;;;;;;5033763;28;20044;-79
2022/04/03 06:03:06;;;;;;;12.38;7.25;;;1.50;99.90;;;;;;5028024;28;20056;-80
2022/04/03 06:05:37;;;;;;;9.65;7.47;;;1.70;99.90;;;;;;5032340;28;20021;-81
2022/04/03 06:08:03;;;;;;;9.32;8.00;;;1.80;99.90;;;;;;5026897;28;20159;-81
2022/04/03 06:10:30;;;;;;;9.27;7.82;;;1.90;99.90;;;;;;5029406;28;20021;-80
2022/04/03 06:13:04;;;;;;;8.30;6.90;;;1.90;99.90;;;;;;5021633;28;20029;-80
2022/04/03 06:15:34;;;;;;;7.90;6.53;;;2.20;99.90;;;;;;5044724;28;20012;-80
2022/04/03 06:18:01;;;;;;;10.07;6.88;;;2.30;99.90;;;;;;5059808;28;20040;-81
2022/04/03 06:20:27;;;;;;;8.63;7.82;;;2.20;99.90;;;;;;5039870;28;20027;-80
2022/04/03 06:22:53;;;;;;;9.02;8.13;;;2.10;99.90;;;;;;5048621;28;20077;-80
2022/04/03 06:25:20;;;;;;;8.32;7.35;;;2.20;99.90;;;;;;5065444;28;20017;-80
2022/04/03 06:27:45;;;;;;;7.38;6.47;;;2.40;99.90;;;;;;5040047;28;20036;-80
2022/04/03 06:30:12;;;;;;;8.75;7.38;;;2.40;99.90;;;;;;5036658;28;20033;-81
2022/04/03 06:32:37;;;;;;;7.13;6.28;;;2.60;99.90;;;;;;5045537;28;20033;-81
2022/04/03 06:35:03;;;;;;;10.18;7.40;;;2.40;99.90;;;;;;5034459;28;20029;-81
2022/04/03 06:37:29;;;;;;;6.93;6.28;;;2.20;99.90;;;;;;5034903;28;20028;-81
2022/04/03 06:39:54;;;;;;;7.38;6.50;;;2.40;99.90;;;;;;5025776;28;20036;-80
2022/04/03 06:42:20;;;;;;;9.55;6.78;;;2.60;99.90;;;;;;5034044;28;20099;-81
2022/04/03 06:44:46;;;;;;;7.82;7.03;;;2.60;99.90;;;;;;5038632;28;20021;-81
2022/04/03 06:47:11;;;;;;;6.97;6.20;;;2.80;99.90;;;;;;5045907;28;20054;-80
2022/04/03 06:49:40;;;;;;;7.20;6.22;;;3.00;99.90;;;;;;5053916;28;20032;-81
2022/04/03 06:52:09;;;;;;;7.15;6.45;;;3.00;99.90;;;;;;5029656;28;20055;-81
2022/04/03 06:54:35;;;;;;;8.73;6.25;;;3.00;99.90;;;;;;5041827;28;20025;-80
2022/04/03 06:57:01;;;;;;;8.18;6.18;;;3.20;99.90;;;;;;5033440;28;20052;-81
2022/04/03 06:59:29;;;;;;;7.50;6.18;;;3.20;99.90;;;;;;5029790;28;20045;-79
2022/04/03 07:01:55;;;;;;;6.35;5.75;;;3.40;99.90;;;;;;5052257;28;20020;-81
2022/04/03 07:04:21;;;;;;;10.30;6.13;;;3.40;99.90;;;;;;5034182;28;20097;-81
2022/04/03 07:06:47;;;;;;;6.45;5.70;;;3.00;99.90;;;;;;5046145;28;20057;-79
2022/04/03 07:09:12;;;;;;;6.32;5.70;;;2.80;99.90;;;;;;5044318;28;20036;-80
2022/04/03 07:11:38;;;;;;;6.53;5.72;;;2.70;99.90;;;;;;5044582;28;20037;-80
2022/04/03 07:14:03;;;;;;;7.07;5.78;;;2.40;99.90;;;;;;5029256;28;20174;-81
2022/04/03 07:16:29;;;;;;;6.35;5.60;;;2.50;99.90;;;;;;5033919;28;20086;-82
2022/04/03 07:18:55;;;;;;;6.68;5.97;;;2.50;99.90;;;;;;5032702;28;20028;-80
2022/04/03 07:21:20;;;;;;;8.43;6.35;;;2.60;99.90;;;;;;5052425;28;20494;-80
2022/04/03 07:23:46;;;;;;;7.07;6.07;;;3.00;99.90;;;;;;5050892;28;20024;-80
2022/04/03 07:26:12;;;;;;;6.22;5.65;;;3.30;99.90;;;;;;5026914;28;20033;-80
2022/04/03 07:28:37;;;;;;;6.95;6.25;;;3.50;99.90;;;;;;5023996;28;20041;-79
2022/04/03 07:31:03;;;;;;;6.88;5.57;;;3.20;99.90;;;;;;5029920;28;20032;-79
2022/04/03 07:33:28;;;;;;;7.10;6.05;;;3.40;99.90;;;;;;5050259;28;20021;-80
2022/04/03 07:35:54;;;;;;;9.55;6.35;;;3.50;99.90;;;;;;5025862;28;20600;-81
2022/04/03 07:38:20;;;;;;;6.22;5.63;;;3.60;99.90;;;;;;5059921;28;20021;-79
2022/04/03 07:40:46;;;;;;;5.97;5.43;;;3.50;99.90;;;;;;5040756;28;20029;-80
2022/04/03 07:43:12;;;;;;;6.70;5.68;;;3.60;99.90;;;;;;5046395;28;20052;-80
2022/04/03 07:45:38;;;;;;;7.40;6.18;;;4.00;99.90;;;;;;5059042;28;20468;-81
2022/04/03 07:48:03;;;;;;;7.00;5.50;;;4.40;99.90;;;;;;5043224;28;20029;-80
2022/04/03 07:50:29;;;;;;;6.22;5.63;;;4.10;99.90;;;;;;5041733;28;20026;-80
2022/04/03 07:52:55;;;;;;;6.10;5.50;;;3.60;99.90;;;;;;5032154;28;20029;-81
2022/04/03 07:55:20;;;;;;;6.40;5.78;;;3.50;99.90;;;;;;5045146;28;20029;-80
2022/04/03 07:57:46;;;;;;;8.02;5.60;;;3.40;99.90;;;;;;5052880;28;20025;-81
2022/04/03 08:00:13;;;;;;;6.50;5.20;;;3.50;99.90;;;;;;5029288;28;20033;-82
2022/04/03 08:02:40;;;;;;;6.70;5.70;;;3.30;99.90;;;;;;5050420;28;20248;-82
2022/04/03 08:05:07;;;;;;;7.15;5.45;;;3.40;99.90;;;;;;5048494;28;20394;-81
2022/04/03 08:07:40;;;;;;;6.00;4.75;;;3.60;99.90;;;;;;5034917;28;20491;-80
2022/04/03 08:10:08;;;;;;;6.60;6.00;;;3.80;99.90;;;;;;5054492;28;20037;-79
2022/04/03 08:12:35;;;;;;;7.18;5.40;;;3.70;99.90;;;;;;5040035;28;20033;-81
2022/04/03 08:15:00;;;;;;;10.73;6.70;;;4.00;99.90;;;;;;5033089;28;20031;-81
2022/04/03 08:17:26;;;;;;;5.78;4.88;;;4.20;99.90;;;;;;5035398;28;20025;-80
2022/04/03 08:19:52;;;;;;;6.05;5.45;;;4.20;99.90;;;;;;5040806;28;20029;-82
2022/04/03 08:22:17;;;;;;;5.22;4.72;;;4.00;99.90;;;;;;5065770;28;20036;-81
2022/04/03 08:24:43;;;;;;;6.65;5.65;;;4.20;99.90;;;;;;5059131;28;20013;-80
2022/04/03 08:27:10;;;;;;;5.85;5.10;;;3.90;99.90;;;;;;5035979;28;20549;-81
2022/04/03 08:29:36;;;;;;;7.30;5.85;;;3.50;99.90;;;;;;5049304;28;20055;-82
2022/04/03 08:32:01;;;;;;;5.95;4.75;;;3.50;99.90;;;;;;5036615;28;20550;-81
2022/04/03 08:34:27;;;;;;;8.75;4.88;;;4.00;99.90;;;;;;5040188;28;20025;-82
2022/04/03 08:36:52;;;;;;;5.82;5.28;;;4.10;99.90;;;;;;5036287;28;20029;-79
2022/04/03 08:39:18;;;;;;;6.68;4.97;;;4.30;99.90;;;;;;5048404;28;20025;-80
2022/04/03 08:41:43;;;;;;;6.72;5.47;;;4.30;99.90;;;;;;5039420;28;20021;-81
2022/04/03 08:44:10;;;;;;;5.35;4.55;;;4.40;99.90;;;;;;5039111;28;20035;-80
2022/04/03 08:46:38;;;;;;;5.20;4.57;;;4.20;99.90;;;;;;5048793;28;20027;-81
2022/04/03 08:49:05;;;;;;;4.97;4.47;;;3.80;99.90;;;;;;5035567;28;20029;-81
2022/04/03 08:51:34;;;;;;;5.82;4.85;;;3.90;99.90;;;;;;5036233;28;20020;-80
2022/04/03 08:54:00;;;;;;;6.80;5.10;;;4.40;99.90;;;;;;5038135;28;20043;-81
2022/04/03 08:56:25;;;;;;;8.43;4.80;;;4.80;99.90;;;;;;5054826;28;20426;-82
2022/04/03 08:58:51;;;;;;;6.05;5.28;;;4.50;99.90;;;;;;5049523;28;20021;-80
2022/04/03 09:01:17;;;;;;;5.68;4.00;;;4.30;99.90;;;;;;5030735;28;20481;-81
2022/04/03 09:03:43;;;;;;;6.20;4.15;;;5.00;99.90;;;;;;5036441;28;20036;-81
2022/04/03 09:06:19;;;;;;;4.28;3.83;;;5.20;99.90;;;;;;5035446;28;20021;-80
2022/04/03 09:08:46;;;;;;;4.97;4.35;;;4.60;99.90;;;;;;5035742;28;20452;-81
2022/04/03 09:11:12;;;;;;;4.80;3.95;;;4.80;99.90;;;;;;5030648;28;20022;-80
2022/04/03 09:13:39;;;;;;;4.65;4.15;;;4.60;99.90;;;;;;5032294;28;20028;-83
2022/04/03 09:16:06;;;;;;;7.93;4.80;;;4.60;99.90;;;;;;5044617;28;20036;-82
2022/04/03 09:18:45;;;;;;;4.22;3.83;;;4.90;99.90;;;;;;5037683;28;20021;-81
2022/04/03 09:21:24;;;;;;;10.18;5.25;;;4.90;99.90;;;;;;5032328;28;20025;-82
2022/04/03 09:24:04;;;;;;;6.55;4.72;;;4.60;99.90;;;;;;5029909;28;20032;-82
2022/04/03 09:26:30;;;;;;;5.88;4.60;;;4.50;99.90;;;;;;5054393;28;20033;-82
2022/04/03 09:29:14;;;;;;;6.82;4.45;;;4.60;99.90;;;;;;5032546;28;20031;-81
2022/04/03 09:31:41;;;;;;;4.72;4.22;;;4.90;99.90;;;;;;5035697;28;20112;-81
2022/04/03 09:34:14;;;;;;;6.47;4.70;;;5.00;99.90;;;;;;5048961;28;20104;-81
2022/04/03 09:36:40;;;;;;;5.05;4.32;;;4.90;99.90;;;;;;5050950;28;20031;-82
2022/04/03 09:39:06;;;;;;;4.32;3.92;;;4.70;99.90;;;;;;5032994;28;20033;-80
2022/04/03 09:41:54;;;;;;;5.47;4.10;;;4.30;99.90;;;;;;5039322;28;20029;-82
2022/04/03 09:44:29;;;;;;;5.32;4.20;;;4.70;99.90;;;;;;5035946;28;20016;-81
2022/04/03 09:47:14;;;;;;;8.02;4.10;;;5.20;99.90;;;;;;5030802;28;20036;-80
2022/04/03 09:49:45;;;;;;;5.32;3.45;;;4.80;99.90;;;;;;5051200;28;20031;-81
2022/04/03 09:52:11;;;;;;;4.50;4.10;;;4.70;99.90;;;;;;5027818;28;20053;-82
2022/04/03 09:54:38;;;;;;;6.72;4.25;;;5.30;99.90;;;;;;5035194;28;20056;-81
2022/04/03 09:57:21;;;;;;;4.85;4.13;;;5.40;99.90;;;;;;5046533;28;20055;-82
2022/04/03 09:59:48;;;;;;;4.65;4.18;;;4.70;99.90;;;;;;5046309;28;20014;-82
2022/04/03 10:02:14;;;;;;;4.68;4.22;;;4.60;99.90;;;;;;5048127;28;20076;-81
2022/04/03 10:04:40;;;;;;;4.63;3.90;;;4.90;99.90;;;;;;5029371;28;20098;-82
2022/04/03 10:07:07;;;;;;;5.05;4.65;;;5.00;99.90;;;;;;5051257;28;20044;-81
2022/04/03 10:09:32;;;;;;;4.88;4.25;;;5.00;99.90;;;;;;5033292;28;20026;-80
2022/04/03 10:11:58;;;;;;;7.07;4.28;;;4.90;99.90;;;;;;5037942;28;20033;-82
2022/04/03 10:14:26;;;;;;;5.07;4.57;;;4.90;99.90;;;;;;5036710;28;20036;-80
2022/04/03 10:16:51;;;;;;;3.92;3.53;;;4.70;99.90;;;;;;5047974;28;20033;-80
2022/04/03 10:19:17;;;;;;;5.30;4.80;;;4.50;99.90;;;;;;5038310;28;20074;-81
2022/04/03 10:21:51;;;;;;;7.70;4.78;;;4.30;99.90;;;;;;5057435;28;20108;-81
2022/04/03 10:24:18;;;;;;;3.92;3.53;;;4.50;99.90;;;;;;5042682;28;20020;-80
2022/04/03 10:26:50;;;;;;;4.88;4.30;;;4.50;99.90;;;;;;5051249;28;20031;-80
2022/04/03 10:29:16;;;;;;;4.32;3.55;;;4.20;99.90;;;;;;5056952;28;20047;-79
2022/04/03 10:31:55;;;;;;;6.35;4.15;;;4.20;99.90;;;;;;5031840;28;20120;-81
2022/04/03 10:34:21;;;;;;;4.93;4.00;;;4.30;99.90;;;;;;5033708;28;20521;-81
2022/04/03 10:36:49;;;;;;;4.65;3.55;;;4.30;99.90;;;;;;5030897;28;20063;-81
2022/04/03 10:39:28;;;;;;;6.35;3.55;;;4.50;99.90;;;;;;5034996;28;20021;-81
2022/04/03 10:42:20;;;;;;;6.93;3.42;;;4.60;99.90;;;;;;5028927;28;20059;-81
2022/04/03 10:45:12;;;;;;;5.95;4.15;;;4.60;99.90;;;;;;5051170;28;20075;-82
2022/04/03 10:47:41;;;;;;;3.83;3.45;;;4.60;99.90;;;;;;5056102;28;20044;-80
2022/04/03 10:50:09;;;;;;;5.00;3.33;;;5.50;99.90;;;;;;5035096;28;20491;-81
2022/04/03 10:52:40;;;;;;;4.00;3.05;;;5.20;99.90;;;;;;5044999;28;20451;-81
2022/04/03 10:55:15;;;;;;;;;;;5.50;99.90;;;;;;5041696;28;20037;-81
2022/04/03 10:57:42;;;;;;;4.05;3.25;;;5.00;99.90;;;;;;5046764;28;19913;-82
2022/04/03 11:00:14;;;;;;;4.10;3.67;;;5.00;99.90;;;;;;5031022;28;20024;-84
2022/04/03 11:02:40;;;;;;;3.17;2.72;;;5.50;99.90;;;;;;5050177;28;20016;-82
2022/04/03 11:05:26;;;;;;;2.47;2.28;;;6.10;99.90;;;;;;5039553;28;20125;-82
2022/04/03 11:08:01;;;;;;;6.03;2.35;;;6.90;99.10;;;;;;5052895;28;20025;-81
2022/04/03 11:10:48;;;;;;;2.83;2.58;;;6.80;99.60;;;;;;5050411;28;20467;-80
2022/04/03 11:13:15;;;;;;;4.85;2.90;;;6.80;99.50;;;;;;5045799;28;20044;-79
2022/04/03 11:16:00;;;;;;;5.18;3.10;;;6.50;99.80;;;;;;5047358;28;20391;-81
2022/04/03 11:18:32;;;;;;;2.58;2.38;;;6.40;99.90;;;;;;5036855;28;20029;-82
2022/04/03 11:21:22;;;;;;;2.67;2.38;;;6.40;99.70;;;;;;5034638;28;20025;-78
2022/04/03 11:24:06;;;;;;;14.50;3.67;;;6.80;99.90;;;;;;5048242;28;20032;-79
2022/04/03 11:26:34;;;;;;;4.95;3.05;;;6.70;99.90;;;;;;5031586;28;20145;-83
2022/04/03 11:29:00;;;;;;;3.30;2.53;;;7.40;99.80;;;;;;5055879;28;20087;-82
2022/04/03 11:31:27;;;;;;;5.13;2.92;;;7.70;97.60;;;;;;5045862;28;20025;-83
2022/04/03 11:33:53;;;;;;;2.45;2.25;;;7.10;96.90;;;;;;5038650;28;20190;-83
2022/04/03 11:36:24;;;;;;;4.30;2.50;;;6.50;98.80;;;;;;5050826;28;20470;-84
2022/04/03 11:38:51;;;;;;;6.47;3.05;;;6.40;99.60;;;;;;5048657;28;20021;-80
2022/04/03 11:41:31;;;;;;;4.50;2.65;;;6.70;98.30;;;;;;5081861;28;20040;-79
2022/04/03 11:44:02;;;;;;;3.30;3.00;;;6.70;97.80;;;;;;5056541;28;20056;-82
2022/04/03 11:46:29;;;;;;;8.52;2.42;;;6.60;98.40;;;;;;5066239;28;20024;-81
2022/04/03 11:48:54;;;;;;;2.80;2.50;;;6.50;98.60;;;;;;5042730;28;20051;-81
2022/04/03 11:51:21;;;;;;;3.25;2.95;;;6.90;97.50;;;;;;5058366;28;20017;-84
2022/04/03 11:53:54;;;;;;;3.85;2.85;;;6.80;96.90;;;;;;5041513;28;20025;-84
2022/04/03 11:56:21;;;;;;;5.35;2.55;;;6.00;97.70;;;;;;5060041;28;20051;-83
2022/04/03 11:58:49;;;;;;;5.20;2.92;;;5.50;99.10;;;;;;5051088;28;20021;-84
2022/04/03 12:01:24;;;;;;;2.90;2.53;;;5.50;99.70;;;;;;5057778;28;20071;-84
2022/04/03 12:03:59;;;;;;;6.85;3.65;;;5.70;99.30;;;;;;5070151;28;20024;-84
2022/04/03 12:06:24;;;;;;;3.22;2.92;;;5.80;99.90;;;;;;5041848;28;20017;-85
2022/04/03 12:08:50;;;;;;;3.05;2.75;;;5.60;98.90;;;;;;5047889;28;20043;-84
2022/04/03 12:11:20;;;;;;;3.63;2.90;;;5.60;98.30;;;;;;5064421;28;20082;-84
2022/04/03 12:13:46;;;;;;;4.85;2.70;;;5.50;98.30;;;;;;5057923;28;20028;-85
2022/04/03 12:16:17;;;;;;;3.30;3.10;;;5.50;99.10;;;;;;5060659;28;20065;-84
2022/04/03 12:19:00;;;;;;;3.25;2.97;;;5.50;98.80;;;;;;5040314;28;20021;-84
2022/04/03 12:21:49;;;;;;;4.85;3.03;;;5.80;98.80;;;;;;5042860;28;20026;-84
2022/04/03 12:24:21;;;;;;;3.03;2.72;;;6.10;97.30;;;;;;5054339;28;20028;-84
2022/04/03 12:26:57;;;;;;;2.85;2.65;;;6.60;96.90;;;;;;5061468;28;20028;-85
2022/04/03 12:29:24;;;;;;;6.95;3.08;;;5.90;96.70;;;;;;5044725;28;20521;-84
2022/04/03 12:32:05;;;;;;;4.85;2.60;;;5.80;96.90;;;;;;5037715;28;20029;-84
2022/04/03 12:34:36;;;;;;;4.38;3.38;;;5.60;97.50;;;;;;5058052;28;20082;-84
2022/04/03 12:37:04;;;;;;;3.45;2.72;;;5.60;97.70;;;;;;5044204;28;20029;-83
2022/04/03 12:39:38;;;;;;;3.58;2.50;;;5.70;97.40;;;;;;5042176;28;20082;-85
2022/04/03 12:42:17;;;;;;;3.65;2.40;;;5.70;97.70;;;;;;5045907;28;20032;-85
2022/04/03 12:45:12;;;;;;;3.38;2.75;;;5.40;97.10;;;;;;5034091;28;20021;-85
2022/04/03 12:47:56;;;;;;;5.55;3.08;;;5.00;99.30;;;;;;5037108;28;20052;-85
2022/04/03 12:50:31;;;;;;;6.97;3.35;;;4.80;99.30;;;;;;5047437;28;20021;-85